Terminal Aerodrome Forecast
Issued by NWS Houston/Galveston, TX

Home | Current Version | Previous Version | Text Only | Print | Product List | Glossary On
Versions: 1 2 3 4 5 6 7 8 9 10 11 12 13 14 15 16 17 18 19 20 21 22 23 24 25 26
000
FTUS44 KHGX 012331
TAFGLS
TAF
KGLS 012331Z 0200/0224 09015G25KT P6SM VCSH SCT007 OVC012
     FM020400 11012KT 4SM BR BKN015 BKN035
     FM021000 02012KT P6SM VCTS SCT008CB OVC015
     FM021600 36015G25KT P6SM VCSH BKN018 OVC050
     FM022000 01013KT P6SM BKN050=

USA.gov is the U.S. government's official web portal to all federal, state and local government web resources and services.